Time;durP1;ratioP1;P1;durP2;ratioP2;P2;SDS_P1;SDS_P2;PMS_P1;PMS_P2;Temp;Humidity;BMP_temperature;BMP_pressure;BME280_temperature;BME280_humidity;BME280_pressure;Samples;Min_cycle;Max_cycle;Signal;HPM_P1;HPM_P2
2022/11/05 00:09:56;;;;;;;6.38;2.60;;;;;;;;;;5105002;28;20044;-81
2022/11/05 00:17:52;;;;;;;5.78;2.03;;;;;;;;;;5105269;28;20051;-79
2022/11/05 00:20:18;;;;;;;8.13;2.28;;;;;;;;;;5105125;28;20058;-77
2022/11/05 00:25:30;;;;;;;6.13;2.25;;;;;;;;;;5103370;27;20063;-79
2022/11/05 00:27:59;;;;;;;6.63;2.00;;;;;;;;;;5104285;28;20056;-79
2022/11/05 00:30:25;;;;;;;5.43;2.38;;;;;;;;;;5104362;28;20036;-80
2022/11/05 00:32:52;;;;;;;4.13;2.00;;;;;;;;;;5106411;28;20055;-78
2022/11/05 00:35:20;;;;;;;7.28;2.30;;;;;;;;;;5102040;28;20048;-80
2022/11/05 00:37:47;;;;;;;5.97;2.42;;;;;;;;;;5105103;27;20584;-81
2022/11/05 00:40:15;;;;;;;5.07;2.50;;;;;;;;;;5105939;27;20052;-79
2022/11/05 00:45:28;;;;;;;8.85;2.83;;;;;;;;;;5101594;27;20040;-80
2022/11/05 00:50:39;;;;;;;7.88;2.28;;;;;;;;;;5105211;27;20052;-80
2022/11/05 00:53:06;;;;;;;6.05;2.40;;;;;;;;;;5104839;27;20166;-79
2022/11/05 00:55:33;;;;;;;7.10;2.30;;;;;;;;;;5105900;27;20506;-80
2022/11/05 00:58:00;;;;;;;6.32;2.25;;;;;;;;;;5103913;28;20075;-79
2022/11/05 01:00:28;;;;;;;4.55;2.30;;;;;;;;;;5102619;28;20052;-78
2022/11/05 01:03:02;;;;;;;5.88;2.22;;;;;;;;;;5104854;28;20063;-80
2022/11/05 01:05:29;;;;;;;6.45;2.33;;;;;;;;;;5105550;27;20055;-79
2022/11/05 01:07:56;;;;;;;5.90;2.45;;;;;;;;;;5105012;27;20060;-81
2022/11/05 01:10:23;;;;;;;5.40;2.38;;;;;;;;;;5102691;27;20055;-80
2022/11/05 01:12:49;;;;;;;8.32;2.60;;;;;;;;;;5104505;27;20056;-81
2022/11/05 01:15:16;;;;;;;6.60;2.58;;;;;;;;;;5104108;28;20056;-78
2022/11/05 01:17:42;;;;;;;5.82;2.78;;;;;;;;;;5102787;28;20052;-81
2022/11/05 01:20:09;;;;;;;5.93;2.75;;;;;;;;;;5092467;28;20056;-79
2022/11/05 01:22:35;;;;;;;6.20;2.40;;;;;;;;;;5103021;27;20052;-80
2022/11/05 01:25:02;;;;;;;8.18;2.50;;;;;;;;;;5104088;28;20518;-79
2022/11/05 01:27:28;;;;;;;5.53;2.70;;;;;;;;;;5100403;28;20075;-78
2022/11/05 01:29:54;;;;;;;10.07;3.05;;;;;;;;;;5104278;28;20048;-80
2022/11/05 01:32:21;;;;;;;9.40;2.78;;;;;;;;;;5103979;28;20058;-79
2022/11/05 01:34:47;;;;;;;5.95;2.80;;;;;;;;;;5105321;27;20719;-81
2022/11/05 01:37:13;;;;;;;9.57;2.90;;;;;;;;;;5103534;28;20048;-81
2022/11/05 01:39:40;;;;;;;8.27;2.60;;;;;;;;;;5101375;28;20059;-80
2022/11/05 01:42:13;;;;;;;5.60;2.50;;;;;;;;;;5096457;27;20063;-79
2022/11/05 01:44:59;;;;;;;6.60;2.60;;;;;;;;;;5103693;28;20055;-81
2022/11/05 01:47:28;;;;;;;6.13;2.83;;;;;;;;;;5104031;27;20044;-79
2022/11/05 01:49:56;;;;;;;5.45;2.78;;;;;;;;;;5088916;27;20044;-81
2022/11/05 01:52:23;;;;;;;5.38;2.30;;;;;;;;;;5093922;28;20052;-80
2022/11/05 01:54:49;;;;;;;7.68;2.63;;;;;;;;;;5092929;28;20102;-80
2022/11/05 01:57:16;;;;;;;6.00;2.40;;;;;;;;;;5102747;28;20052;-79
2022/11/05 01:59:54;;;;;;;5.53;2.08;;;;;;;;;;5102225;28;20430;-79
2022/11/05 02:02:22;;;;;;;8.43;2.35;;;;;;;;;;5103309;27;20130;-80
2022/11/05 02:04:52;;;;;;;6.15;2.42;;;;;;;;;;5101829;27;20577;-81
2022/11/05 02:07:19;;;;;;;6.68;2.45;;;;;;;;;;5102073;27;20052;-79
2022/11/05 02:09:54;;;;;;;9.00;2.40;;;;;;;;;;5101094;28;20056;-80
2022/11/05 02:12:21;;;;;;;6.57;2.40;;;;;;;;;;5102833;28;20052;-80
2022/11/05 02:14:48;;;;;;;5.65;2.22;;;;;;;;;;5104737;27;20083;-79
2022/11/05 02:17:14;;;;;;;6.75;2.78;;;;;;;;;;5102035;28;20048;-79
2022/11/05 02:19:49;;;;;;;6.13;2.70;;;;;;;;;;5103463;27;20071;-81
2022/11/05 02:22:34;;;;;;;8.40;2.67;;;;;;;;;;5103772;28;20054;-81
2022/11/05 02:25:20;;;;;;;6.78;2.67;;;;;;;;;;5102404;28;20568;-78
2022/11/05 02:27:55;;;;;;;8.60;2.60;;;;;;;;;;5086708;28;20056;-80
2022/11/05 02:30:30;;;;;;;7.22;2.63;;;;;;;;;;5101281;28;20495;-80
2022/11/05 02:32:57;;;;;;;6.75;2.60;;;;;;;;;;5103858;28;20054;-78
2022/11/05 02:35:35;;;;;;;11.60;2.65;;;;;;;;;;5105176;28;20079;-78
2022/11/05 02:38:19;;;;;;;8.75;3.33;;;;;;;;;;5100707;28;20044;-80
2022/11/05 02:40:46;;;;;;;9.70;3.88;;;;;;;;;;5083867;28;20064;-77
2022/11/05 02:43:17;;;;;;;7.47;3.75;;;;;;;;;;5095940;28;20048;-79
2022/11/05 02:45:43;;;;;;;;;;;;;;;;;;5100160;27;20056;-81
2022/11/05 02:48:12;;;;;;;10.82;3.40;;;;;;;;;;5101982;28;41705;-82
2022/11/05 02:50:53;;;;;;;6.80;3.40;;;;;;;;;;5104351;27;20056;-77
2022/11/05 02:53:41;;;;;;;10.70;3.60;;;;;;;;;;5104016;27;20522;-78
2022/11/05 02:56:30;;;;;;;11.93;3.97;;;;;;;;;;5102353;27;20056;-79
2022/11/05 02:58:57;;;;;;;7.28;3.53;;;;;;;;;;5094554;28;20062;-78
2022/11/05 03:01:23;;;;;;;11.13;4.03;;;;;;;;;;5103444;27;20485;-78
2022/11/05 03:03:52;;;;;;;9.65;3.90;;;;;;;;;;5103519;28;20082;-79
2022/11/05 03:06:38;;;;;;;8.00;4.07;;;;;;;;;;5104060;27;20048;-79
2022/11/05 03:09:22;;;;;;;7.80;3.85;;;;;;;;;;5106626;27;20462;-78
2022/11/05 03:11:57;;;;;;;8.80;3.65;;;;;;;;;;5107472;28;20063;-80
2022/11/05 03:14:43;;;;;;;8.05;3.70;;;;;;;;;;5105611;28;20052;-79
2022/11/05 03:17:18;;;;;;;12.07;4.72;;;;;;;;;;5103009;28;20585;-79
2022/11/05 03:19:50;;;;;;;11.95;4.63;;;;;;;;;;5106109;28;20441;-78
2022/11/05 03:22:22;;;;;;;10.15;4.95;;;;;;;;;;5104793;28;20056;-79
2022/11/05 03:24:51;;;;;;;12.90;4.88;;;;;;;;;;5107188;27;20055;-79
2022/11/05 03:27:22;;;;;;;12.30;4.90;;;;;;;;;;5104303;27;20075;-80
2022/11/05 03:29:50;;;;;;;14.80;5.35;;;;;;;;;;5103159;28;20047;-79
2022/11/05 03:32:18;;;;;;;10.85;5.22;;;;;;;;;;5104207;28;20051;-78
2022/11/05 03:34:46;;;;;;;14.07;5.28;;;;;;;;;;5106242;28;20060;-80
2022/11/05 03:37:13;;;;;;;12.05;5.35;;;;;;;;;;5100765;28;20056;-80
2022/11/05 03:39:41;;;;;;;9.13;4.60;;;;;;;;;;5105645;28;20048;-79
2022/11/05 03:42:10;;;;;;;15.52;6.13;;;;;;;;;;5106098;28;20052;-80
2022/11/05 03:44:38;;;;;;;16.88;6.05;;;;;;;;;;5102427;28;20052;-80
2022/11/05 03:47:07;;;;;;;11.63;6.00;;;;;;;;;;5098261;28;20032;-80
2022/11/05 03:49:38;;;;;;;10.70;6.18;;;;;;;;;;5106997;27;20055;-78
2022/11/05 03:52:07;;;;;;;16.58;6.53;;;;;;;;;;5104888;28;20060;-80
2022/11/05 03:54:34;;;;;;;13.07;6.35;;;;;;;;;;5109894;27;20372;-78
2022/11/05 03:57:09;;;;;;;13.32;7.22;;;;;;;;;;5104278;27;20052;-80
2022/11/05 03:59:42;;;;;;;10.82;5.88;;;;;;;;;;5105611;28;20075;-79
2022/11/05 04:02:09;;;;;;;10.20;5.70;;;;;;;;;;5104965;28;20055;-79
2022/11/05 04:04:36;;;;;;;13.10;6.18;;;;;;;;;;5106961;27;20056;-79
2022/11/05 04:15:18;;;;;;;21.70;6.75;;;;;;;;;;5105163;27;20098;-81
2022/11/05 04:17:44;;;;;;;17.25;6.43;;;;;;;;;;5105412;28;20612;-80
2022/11/05 04:25:48;;;;;;;19.85;7.30;;;;;;;;;;5105212;27;20353;-81
2022/11/05 04:28:14;;;;;;;14.65;7.00;;;;;;;;;;5103483;27;20064;-80
2022/11/05 04:30:43;;;;;;;15.63;7.05;;;;;;;;;;5105761;27;20529;-80
2022/11/05 04:33:11;;;;;;;19.98;8.20;;;;;;;;;;5092875;28;20052;-80
2022/11/05 04:35:45;;;;;;;14.77;7.40;;;;;;;;;;5102274;28;20107;-79
2022/11/05 04:38:13;;;;;;;14.52;7.15;;;;;;;;;;5102653;28;20055;-81
2022/11/05 04:40:40;;;;;;;14.38;7.80;;;;;;;;;;5105744;27;20066;-79
2022/11/05 04:43:07;;;;;;;19.92;7.95;;;;;;;;;;5102815;28;20079;-79
2022/11/05 04:45:40;;;;;;;16.77;7.88;;;;;;;;;;5100510;28;20629;-79
2022/11/05 04:48:07;;;;;;;18.17;7.80;;;;;;;;;;5103074;28;20063;-79
2022/11/05 04:50:33;;;;;;;26.13;8.35;;;;;;;;;;5105861;28;20044;-79
2022/11/05 04:52:59;;;;;;;18.60;7.57;;;;;;;;;;5101876;27;20533;-80
2022/11/05 04:55:26;;;;;;;15.90;7.15;;;;;;;;;;5103587;28;20091;-81
2022/11/05 04:57:52;;;;;;;18.83;7.30;;;;;;;;;;5098133;28;20055;-82
2022/11/05 05:00:20;;;;;;;17.27;7.43;;;;;;;;;;5103490;28;20064;-81
2022/11/05 05:02:46;;;;;;;14.82;7.28;;;;;;;;;;5104633;27;20071;-79
2022/11/05 05:05:13;;;;;;;14.20;7.57;;;;;;;;;;5105445;27;20052;-81
2022/11/05 05:07:40;;;;;;;21.33;7.10;;;;;;;;;;5103001;27;20265;-79
2022/11/05 05:10:07;;;;;;;16.85;6.82;;;;;;;;;;5098546;27;20048;-79
2022/11/05 05:12:33;;;;;;;14.00;6.70;;;;;;;;;;5084811;28;20056;-79
2022/11/05 05:15:00;;;;;;;17.17;6.85;;;;;;;;;;5100768;28;20048;-79
2022/11/05 05:17:26;;;;;;;13.23;6.35;;;;;;;;;;5101796;28;20052;-79
2022/11/05 05:22:37;;;;;;;16.33;6.72;;;;;;;;;;5095184;28;20059;-83
2022/11/05 05:25:04;;;;;;;13.25;6.78;;;;;;;;;;5104040;27;20477;-80
2022/11/05 05:27:30;;;;;;;14.55;6.55;;;;;;;;;;5101378;28;20063;-79
2022/11/05 05:29:57;;;;;;;12.43;6.43;;;;;;;;;;5084512;27;20062;-78
2022/11/05 05:32:24;;;;;;;20.33;6.68;;;;;;;;;;5089839;28;20048;-78
2022/11/05 05:34:50;;;;;;;11.57;6.00;;;;;;;;;;5105607;27;20059;-82
2022/11/05 05:37:17;;;;;;;12.60;6.40;;;;;;;;;;5106610;27;20048;-81
2022/11/05 05:39:44;;;;;;;15.27;6.07;;;;;;;;;;5103824;27;20055;-78
2022/11/05 05:42:11;;;;;;;13.57;6.07;;;;;;;;;;5105622;27;20059;-79
2022/11/05 05:44:37;;;;;;;13.13;5.97;;;;;;;;;;5104028;27;20060;-79
2022/11/05 05:47:04;;;;;;;14.15;6.13;;;;;;;;;;5103247;28;20070;-78
2022/11/05 05:49:31;;;;;;;10.75;5.78;;;;;;;;;;5104082;28;20079;-79
2022/11/05 05:51:57;;;;;;;10.52;5.57;;;;;;;;;;5103257;28;20533;-81
2022/11/05 05:54:23;;;;;;;11.13;5.43;;;;;;;;;;5105646;27;20055;-79
2022/11/05 05:56:57;;;;;;;10.85;5.63;;;;;;;;;;5098625;28;20117;-82
2022/11/05 05:59:23;;;;;;;11.57;5.57;;;;;;;;;;5105203;28;20052;-80
2022/11/05 06:01:49;;;;;;;13.82;6.50;;;;;;;;;;5105697;28;20051;-80
2022/11/05 06:04:16;;;;;;;15.20;6.57;;;;;;;;;;5105471;28;20486;-79
2022/11/05 06:06:45;;;;;;;10.57;5.88;;;;;;;;;;5101691;28;20129;-78
2022/11/05 06:09:12;;;;;;;10.13;5.88;;;;;;;;;;5103404;27;20051;-81
2022/11/05 06:11:39;;;;;;;10.32;6.07;;;;;;;;;;5105604;27;20062;-79
2022/11/05 06:14:08;;;;;;;9.27;5.82;;;;;;;;;;5105715;27;20502;-81
2022/11/05 06:16:34;;;;;;;14.25;6.38;;;;;;;;;;5103451;27;20048;-82
2022/11/05 06:19:01;;;;;;;11.82;6.45;;;;;;;;;;5105492;27;20139;-80
2022/11/05 06:21:27;;;;;;;12.95;6.40;;;;;;;;;;5102952;27;20513;-79
2022/11/05 06:23:53;;;;;;;11.82;5.90;;;;;;;;;;5103066;28;20462;-78
2022/11/05 06:26:20;;;;;;;14.95;6.20;;;;;;;;;;5101761;28;20063;-78
2022/11/05 06:28:46;;;;;;;12.02;6.05;;;;;;;;;;5104225;28;20056;-78
2022/11/05 06:31:13;;;;;;;11.77;6.70;;;;;;;;;;5103800;28;20063;-79
2022/11/05 06:33:39;;;;;;;13.07;5.72;;;;;;;;;;5103974;27;20091;-81
2022/11/05 06:36:07;;;;;;;13.77;6.68;;;;;;;;;;5099896;27;20557;-79
2022/11/05 06:38:35;;;;;;;10.45;5.97;;;;;;;;;;5108161;27;20056;-79
2022/11/05 06:41:01;;;;;;;13.48;5.80;;;;;;;;;;5106448;28;20063;-78
2022/11/05 06:43:34;;;;;;;13.05;6.40;;;;;;;;;;5107632;27;20064;-80
2022/11/05 06:46:01;;;;;;;12.00;5.80;;;;;;;;;;5104235;28;20063;-80
2022/11/05 06:48:27;;;;;;;19.98;6.53;;;;;;;;;;5103815;27;20059;-77
2022/11/05 06:50:54;;;;;;;16.98;6.72;;;;;;;;;;5087005;28;20057;-78
2022/11/05 06:53:20;;;;;;;14.95;6.38;;;;;;;;;;5102166;28;20087;-79
2022/11/05 06:55:47;;;;;;;12.05;6.55;;;;;;;;;;5105064;27;20131;-79
2022/11/05 06:58:13;;;;;;;11.18;6.47;;;;;;;;;;5106400;28;20135;-79
2022/11/05 07:00:40;;;;;;;15.48;6.57;;;;;;;;;;5106338;28;20098;-79
2022/11/05 07:03:07;;;;;;;14.98;6.88;;;;;;;;;;5107896;28;20146;-78
2022/11/05 07:05:36;;;;;;;13.15;6.68;;;;;;;;;;5105602;27;20062;-80
2022/11/05 07:08:02;;;;;;;14.27;7.32;;;;;;;;;;5105339;28;20422;-78
2022/11/05 07:10:29;;;;;;;15.85;6.43;;;;;;;;;;5106038;28;20056;-78
2022/11/05 07:12:55;;;;;;;14.65;6.95;;;;;;;;;;5107828;27;20121;-82
2022/11/05 07:15:21;;;;;;;16.50;7.50;;;;;;;;;;5105440;28;20060;-81
2022/11/05 07:17:48;;;;;;;16.00;7.03;;;;;;;;;;5105351;28;20048;-79
2022/11/05 07:20:14;;;;;;;13.70;6.88;;;;;;;;;;5106483;28;20056;-79
2022/11/05 07:22:40;;;;;;;15.80;7.05;;;;;;;;;;5107191;28;20059;-79
2022/11/05 07:25:07;;;;;;;13.60;7.32;;;;;;;;;;5103926;28;20139;-78
2022/11/05 07:27:38;;;;;;;13.48;7.20;;;;;;;;;;5105181;28;20055;-78
2022/11/05 07:30:04;;;;;;;;;;;;;;;;;;5107518;27;20574;-81
2022/11/05 07:32:35;;;;;;;20.85;7.63;;;;;;;;;;5102629;28;45139;-81
2022/11/05 07:35:01;;;;;;;19.02;8.13;;;;;;;;;;5102639;27;20051;-79
2022/11/05 07:37:28;;;;;;;16.48;7.80;;;;;;;;;;5103366;28;20894;-79
2022/11/05 07:39:54;;;;;;;12.23;7.18;;;;;;;;;;5107067;28;20056;-79
2022/11/05 07:42:21;;;;;;;17.00;8.25;;;;;;;;;;5104350;28;20044;-81
2022/11/05 07:44:47;;;;;;;20.38;8.02;;;;;;;;;;5089424;28;20063;-81
2022/11/05 07:47:13;;;;;;;16.70;8.30;;;;;;;;;;5102759;28;20514;-79
2022/11/05 07:49:40;;;;;;;19.65;7.97;;;;;;;;;;5103666;27;20066;-78
2022/11/05 07:52:06;;;;;;;19.73;8.32;;;;;;;;;;5103048;27;20056;-79
2022/11/05 07:54:32;;;;;;;14.75;8.13;;;;;;;;;;5105051;28;20509;-78
2022/11/05 07:57:00;;;;;;;22.23;9.13;;;;;;;;;;5106394;28;20051;-79
2022/11/05 07:59:26;;;;;;;16.90;8.15;;;;;;;;;;5105730;28;20056;-79
2022/11/05 08:01:52;;;;;;;13.65;7.90;;;;;;;;;;5102500;28;20517;-78
2022/11/05 08:04:19;;;;;;;24.35;8.73;;;;;;;;;;5092188;28;20053;-78
2022/11/05 08:06:46;;;;;;;18.55;8.45;;;;;;;;;;5103869;28;20060;-80
2022/11/05 08:09:12;;;;;;;17.20;8.15;;;;;;;;;;5093551;27;20056;-81
2022/11/05 08:11:38;;;;;;;19.75;8.13;;;;;;;;;;5084529;28;20489;-80
2022/11/05 08:14:05;;;;;;;14.73;8.40;;;;;;;;;;5098368;28;20539;-78
2022/11/05 08:16:32;;;;;;;15.95;9.18;;;;;;;;;;5104071;28;20117;-78
2022/11/05 08:18:58;;;;;;;17.00;8.18;;;;;;;;;;5106234;27;20063;-79
2022/11/05 08:21:24;;;;;;;16.63;8.50;;;;;;;;;;5095886;27;21191;-79
2022/11/05 08:23:51;;;;;;;16.20;8.52;;;;;;;;;;5101989;28;20903;-79
2022/11/05 08:26:18;;;;;;;16.65;8.50;;;;;;;;;;5100515;28;20064;-80
2022/11/05 08:28:44;;;;;;;20.27;9.05;;;;;;;;;;5104506;28;20062;-80
2022/11/05 08:31:13;;;;;;;16.33;8.48;;;;;;;;;;5104333;28;20052;-80
2022/11/05 08:33:39;;;;;;;19.75;8.60;;;;;;;;;;5100143;28;20055;-79
2022/11/05 08:36:05;;;;;;;17.30;8.18;;;;;;;;;;5096951;28;20098;-76
2022/11/05 08:38:32;;;;;;;16.58;8.05;;;;;;;;;;5097322;28;20102;-81
2022/11/05 08:40:59;;;;;;;25.25;9.05;;;;;;;;;;5105588;28;20055;-80
2022/11/05 08:43:25;;;;;;;18.20;8.57;;;;;;;;;;5102939;28;20075;-77
2022/11/05 08:45:53;;;;;;;15.70;7.95;;;;;;;;;;5102806;28;20194;-78
2022/11/05 08:48:20;;;;;;;17.52;8.65;;;;;;;;;;5105089;27;20119;-78
2022/11/05 08:50:47;;;;;;;15.48;8.65;;;;;;;;;;5106206;28;20113;-78
2022/11/05 08:53:13;;;;;;;19.25;9.38;;;;;;;;;;5090244;28;20052;-78
2022/11/05 08:55:40;;;;;;;18.08;9.30;;;;;;;;;;5088140;28;20058;-78
2022/11/05 08:58:11;;;;;;;19.60;7.78;;;;;;;;;;5102831;27;20497;-78
2022/11/05 09:00:37;;;;;;;13.00;7.38;;;;;;;;;;5103103;27;20054;-78
2022/11/05 09:03:05;;;;;;;16.48;8.15;;;;;;;;;;5101590;28;20083;-77
2022/11/05 09:05:36;;;;;;;12.30;7.57;;;;;;;;;;5098351;28;20047;-78
2022/11/05 09:08:06;;;;;;;18.80;7.55;;;;;;;;;;5093034;27;20056;-78
2022/11/05 09:10:33;;;;;;;15.10;7.45;;;;;;;;;;5093936;28;20499;-77
2022/11/05 09:13:00;;;;;;;14.07;7.47;;;;;;;;;;5097363;27;20063;-80
2022/11/05 09:15:26;;;;;;;13.52;7.82;;;;;;;;;;5100478;27;20052;-79
2022/11/05 09:17:53;;;;;;;12.40;6.88;;;;;;;;;;5101390;28;20197;-78
2022/11/05 09:20:20;;;;;;;12.73;7.70;;;;;;;;;;5092461;27;20056;-78
2022/11/05 09:22:47;;;;;;;12.32;6.05;;;;;;;;;;5095500;28;20056;-79
2022/11/05 09:25:16;;;;;;;15.00;6.63;;;;;;;;;;5090591;28;20103;-78
2022/11/05 09:27:43;;;;;;;13.35;6.80;;;;;;;;;;5084572;28;20056;-81
2022/11/05 09:30:10;;;;;;;14.52;5.90;;;;;;;;;;5100678;28;20114;-78
2022/11/05 09:32:36;;;;;;;11.93;6.22;;;;;;;;;;5102549;27;20514;-78
2022/11/05 09:35:03;;;;;;;11.73;6.63;;;;;;;;;;5101720;28;21502;-77
2022/11/05 09:37:29;;;;;;;10.65;6.03;;;;;;;;;;5102802;28;20052;-80
2022/11/05 09:39:56;;;;;;;10.23;5.18;;;;;;;;;;5104941;27;20106;-80
2022/11/05 09:42:25;;;;;;;15.10;6.25;;;;;;;;;;5104564;27;20403;-78
2022/11/05 09:44:54;;;;;;;10.73;5.57;;;;;;;;;;5104514;27;20067;-79
2022/11/05 09:47:26;;;;;;;12.38;5.95;;;;;;;;;;5104585;27;20508;-78
2022/11/05 09:49:53;;;;;;;12.40;5.93;;;;;;;;;;5104765;27;20060;-79
2022/11/05 09:52:21;;;;;;;10.10;5.57;;;;;;;;;;5097416;27;20538;-80
2022/11/05 09:54:49;;;;;;;11.35;5.55;;;;;;;;;;5101969;28;20063;-78
2022/11/05 09:57:21;;;;;;;12.23;5.72;;;;;;;;;;5100222;27;20063;-77
2022/11/05 09:59:50;;;;;;;11.40;5.30;;;;;;;;;;5100876;28;20536;-78
2022/11/05 10:02:30;;;;;;;11.18;5.65;;;;;;;;;;5100072;28;20109;-80
2022/11/05 10:04:59;;;;;;;11.63;6.00;;;;;;;;;;5103606;27;20048;-79
2022/11/05 10:07:40;;;;;;;13.00;6.15;;;;;;;;;;5103005;28;20056;-79
2022/11/05 10:10:07;;;;;;;11.13;4.78;;;;;;;;;;5090769;28;20068;-78
2022/11/05 10:12:44;;;;;;;11.13;5.38;;;;;;;;;;5095036;28;20055;-81
2022/11/05 10:15:21;;;;;;;10.30;5.40;;;;;;;;;;5109434;28;20075;-80
2022/11/05 10:17:58;;;;;;;12.20;5.22;;;;;;;;;;5116392;27;20140;-82
2022/11/05 10:20:32;;;;;;;9.77;4.70;;;;;;;;;;5106500;28;20411;-80
2022/11/05 10:23:01;;;;;;;9.98;5.30;;;;;;;;;;5109975;27;20450;-81
2022/11/05 10:25:30;;;;;;;12.80;5.20;;;;;;;;;;5095278;27;20063;-79
2022/11/05 10:27:58;;;;;;;13.82;5.00;;;;;;;;;;5104918;28;20055;-80
2022/11/05 10:30:24;;;;;;;8.80;4.35;;;;;;;;;;5099021;27;20603;-81
2022/11/05 10:32:55;;;;;;;9.25;4.22;;;;;;;;;;5098885;28;20140;-80
2022/11/05 10:35:21;;;;;;;;;;;;;;;;;;5103969;28;20052;-80
2022/11/05 10:37:48;;;;;;;15.18;4.68;;;;;;;;;;5102936;28;45407;-79
2022/11/05 10:40:35;;;;;;;11.45;4.00;;;;;;;;;;5104533;27;20054;-81
2022/11/05 10:43:04;;;;;;;8.05;3.47;;;;;;;;;;5095357;28;20057;-81
2022/11/05 10:45:37;;;;;;;8.45;3.70;;;;;;;;;;5084800;28;20044;-80
2022/11/05 10:48:15;;;;;;;12.60;4.43;;;;;;;;;;5102468;28;20048;-80
2022/11/05 10:50:42;;;;;;;9.07;3.78;;;;;;;;;;5103363;28;20060;-82
2022/11/05 10:53:18;;;;;;;8.73;3.58;;;;;;;;;;5104631;27;20056;-81
2022/11/05 10:55:48;;;;;;;8.43;3.97;;;;;;;;;;5103839;27;20056;-80
2022/11/05 10:58:14;;;;;;;11.75;4.15;;;;;;;;;;5099896;28;20047;-82
2022/11/05 11:01:01;;;;;;;7.45;3.63;;;;;;;;;;5096944;27;20052;-77
2022/11/05 11:03:30;;;;;;;9.80;4.45;;;;;;;;;;5085642;28;20584;-79
2022/11/05 11:06:01;;;;;;;9.45;4.07;;;;;;;;;;5104318;27;20404;-81
2022/11/05 11:08:29;;;;;;;10.55;4.00;;;;;;;;;;5101006;28;20051;-80
2022/11/05 11:11:02;;;;;;;12.20;5.90;;;;;;;;;;5104310;27;20058;-77
2022/11/05 11:13:47;;;;;;;11.82;4.75;;;;;;;;;;5102440;28;20149;-81
2022/11/05 11:16:15;;;;;;;11.50;4.32;;;;;;;;;;5101827;27;20051;-78
2022/11/05 11:18:42;;;;;;;10.05;4.45;;;;;;;;;;5083762;28;20056;-81
2022/11/05 11:21:18;;;;;;;10.00;4.30;;;;;;;;;;5101901;28;20055;-77
2022/11/05 11:23:55;;;;;;;10.15;4.50;;;;;;;;;;5104300;27;21112;-81
2022/11/05 11:26:23;;;;;;;10.20;4.60;;;;;;;;;;5107082;28;20051;-79
2022/11/05 11:29:08;;;;;;;8.50;4.82;;;;;;;;;;5094274;28;20056;-78
2022/11/05 11:31:36;;;;;;;8.30;4.07;;;;;;;;;;5106563;28;20056;-81
2022/11/05 11:34:11;;;;;;;8.90;4.65;;;;;;;;;;5101954;28;20442;-78
2022/11/05 11:36:41;;;;;;;12.48;4.47;;;;;;;;;;5093620;28;20057;-80
2022/11/05 11:39:14;;;;;;;9.20;4.10;;;;;;;;;;5104067;27;20048;-80
2022/11/05 11:41:41;;;;;;;10.95;4.40;;;;;;;;;;5106076;28;20278;-79
2022/11/05 11:44:14;;;;;;;13.75;4.80;;;;;;;;;;5106718;27;20052;-82
2022/11/05 11:46:40;;;;;;;12.73;4.40;;;;;;;;;;5104954;28;20068;-78
2022/11/05 11:49:26;;;;;;;11.60;5.65;;;;;;;;;;5104752;28;20056;-79
2022/11/05 11:51:58;;;;;;;12.93;5.95;;;;;;;;;;5104950;28;20052;-80
2022/11/05 11:54:24;;;;;;;10.93;5.03;;;;;;;;;;5107282;27;20083;-81
2022/11/05 11:56:54;;;;;;;13.75;5.82;;;;;;;;;;5106093;27;20544;-79
2022/11/05 11:59:22;;;;;;;10.93;4.93;;;;;;;;;;5106451;27;20079;-80
2022/11/05 12:02:35;;;;;;;9.70;4.22;;;;;;;;;;5098987;28;20087;-81
2022/11/05 12:05:17;;;;;;;11.85;5.20;;;;;;;;;;5100562;28;20183;-82
2022/11/05 12:07:51;;;;;;;9.73;4.78;;;;;;;;;;5102408;28;20056;-79
2022/11/05 12:10:30;;;;;;;8.88;4.40;;;;;;;;;;5101716;28;20102;-79
2022/11/05 12:13:15;;;;;;;10.90;4.90;;;;;;;;;;5095560;28;20529;-79
2022/11/05 12:15:42;;;;;;;12.75;5.55;;;;;;;;;;5104502;28;20058;-80
2022/11/05 12:18:16;;;;;;;15.95;5.60;;;;;;;;;;5091845;28;20070;-79
2022/11/05 12:21:03;;;;;;;11.02;4.90;;;;;;;;;;5108644;27;20056;-80
2022/11/05 12:23:45;;;;;;;10.40;4.90;;;;;;;;;;5102919;28;20483;-82
2022/11/05 12:26:13;;;;;;;13.32;5.15;;;;;;;;;;5091976;28;20105;-79
2022/11/05 12:28:52;;;;;;;11.98;4.78;;;;;;;;;;5104250;28;20070;-79
2022/11/05 12:31:45;;;;;;;8.15;4.13;;;;;;;;;;5102298;28;20060;-82
2022/11/05 12:34:29;;;;;;;9.80;4.35;;;;;;;;;;5107480;27;20060;-82
2022/11/05 12:37:14;;;;;;;11.80;3.70;;;;;;;;;;5106145;28;20091;-79
2022/11/05 12:39:59;;;;;;;10.48;4.28;;;;;;;;;;5106211;28;20032;-81
2022/11/05 12:42:36;;;;;;;10.50;4.35;;;;;;;;;;5093447;28;20056;-81
2022/11/05 12:45:11;;;;;;;9.90;3.80;;;;;;;;;;5104192;28;20059;-80
2022/11/05 12:47:48;;;;;;;8.50;3.90;;;;;;;;;;5102198;28;20049;-80
2022/11/05 12:50:26;;;;;;;9.15;3.33;;;;;;;;;;5106395;27;20063;-80
2022/11/05 12:52:55;;;;;;;;;;;;;;;;;;5096445;28;20060;-80
2022/11/05 12:55:26;;;;;;;9.80;3.35;;;;;;;;;;5104899;28;46169;-80
2022/11/05 12:57:53;;;;;;;7.07;3.40;;;;;;;;;;5096296;28;20061;-80
2022/11/05 13:00:21;;;;;;;9.98;3.42;;;;;;;;;;5102284;28;20098;-80
2022/11/05 13:02:51;;;;;;;7.25;3.67;;;;;;;;;;5104281;28;20559;-79
2022/11/05 13:05:40;;;;;;;9.23;3.33;;;;;;;;;;5103264;28;20052;-79
2022/11/05 13:08:12;;;;;;;7.57;3.80;;;;;;;;;;5103757;28;20063;-81
2022/11/05 13:10:41;;;;;;;8.20;3.42;;;;;;;;;;5098036;28;20095;-80
2022/11/05 13:13:26;;;;;;;9.77;3.80;;;;;;;;;;5093186;28;20056;-78
2022/11/05 13:15:55;;;;;;;10.95;4.20;;;;;;;;;;5103497;28;20055;-81
2022/11/05 13:18:28;;;;;;;15.13;4.22;;;;;;;;;;5106964;27;20055;-80
2022/11/05 13:20:55;;;;;;;8.15;3.92;;;;;;;;;;5107085;27;20052;-80
2022/11/05 13:23:38;;;;;;;10.45;4.10;;;;;;;;;;5103111;28;20056;-81
2022/11/05 13:26:09;;;;;;;9.45;4.00;;;;;;;;;;5097080;27;20056;-81
2022/11/05 13:28:54;;;;;;;9.77;4.63;;;;;;;;;;5091066;28;20122;-81
2022/11/05 13:31:22;;;;;;;10.68;5.07;;;;;;;;;;5105322;28;20060;-81
2022/11/05 13:33:50;;;;;;;11.05;5.30;;;;;;;;;;5110559;27;20059;-80
2022/11/05 13:39:20;;;;;;;10.85;4.43;;;;;;;;;;5101954;28;20064;-81
2022/11/05 13:42:05;;;;;;;8.13;4.30;;;;;;;;;;5101577;28;20522;-81
2022/11/05 13:44:52;;;;;;;7.30;3.95;;;;;;;;;;5103454;28;20048;-81
2022/11/05 13:47:37;;;;;;;8.07;4.00;;;;;;;;;;5085726;28;20051;-79
2022/11/05 13:50:22;;;;;;;7.78;3.80;;;;;;;;;;5102452;28;20044;-79
2022/11/05 13:53:08;;;;;;;10.48;4.47;;;;;;;;;;5098555;28;20054;-79
2022/11/05 13:55:34;;;;;;;9.02;3.80;;;;;;;;;;5088056;28;20537;-80
2022/11/05 13:58:14;;;;;;;9.35;3.90;;;;;;;;;;5102034;28;20056;-80
2022/11/05 14:00:58;;;;;;;9.80;4.18;;;;;;;;;;5093054;28;20055;-79
2022/11/05 14:03:25;;;;;;;9.20;3.67;;;;;;;;;;5100179;28;20561;-80
2022/11/05 14:05:53;;;;;;;9.18;3.88;;;;;;;;;;5096606;28;20063;-80
2022/11/05 14:08:22;;;;;;;7.47;3.47;;;;;;;;;;5097109;28;20095;-80
2022/11/05 14:11:00;;;;;;;8.18;3.63;;;;;;;;;;5101172;28;20056;-80
2022/11/05 14:13:38;;;;;;;9.68;4.25;;;;;;;;;;5106018;27;20833;-80
2022/11/05 14:16:09;;;;;;;10.02;3.88;;;;;;;;;;5103235;28;20056;-80
2022/11/05 14:18:45;;;;;;;8.98;3.78;;;;;;;;;;5100107;28;20044;-79
2022/11/05 14:21:31;;;;;;;6.82;3.08;;;;;;;;;;5102954;27;20055;-80
2022/11/05 14:24:17;;;;;;;7.95;3.30;;;;;;;;;;5103561;28;20537;-80
2022/11/05 14:26:44;;;;;;;7.80;3.17;;;;;;;;;;5101273;28;20064;-78
2022/11/05 14:29:19;;;;;;;7.07;3.38;;;;;;;;;;5099644;28;20056;-81
2022/11/05 14:31:54;;;;;;;7.18;2.95;;;;;;;;;;5102936;28;20044;-80
2022/11/05 14:34:44;;;;;;;10.20;3.63;;;;;;;;;;5104485;27;20048;-80
2022/11/05 14:37:10;;;;;;;8.27;3.60;;;;;;;;;;5105321;27;20161;-79
2022/11/05 14:39:37;;;;;;;9.88;3.58;;;;;;;;;;5104132;27;20052;-81
2022/11/05 14:42:15;;;;;;;8.05;3.58;;;;;;;;;;5101650;27;20055;-78
2022/11/05 14:45:01;;;;;;;10.27;3.42;;;;;;;;;;5102243;28;20063;-79
2022/11/05 14:47:29;;;;;;;8.52;2.92;;;;;;;;;;5100859;28;20052;-80
2022/11/05 14:50:01;;;;;;;9.55;3.78;;;;;;;;;;5105183;28;20109;-79
2022/11/05 14:52:27;;;;;;;8.43;3.40;;;;;;;;;;5104569;27;20048;-80
2022/11/05 14:54:55;;;;;;;8.80;4.75;;;;;;;;;;5099924;28;20064;-80
2022/11/05 14:57:40;;;;;;;13.52;5.40;;;;;;;;;;5096197;27;20056;-79
2022/11/05 15:00:26;;;;;;;21.90;8.98;;;;;;;;;;5105426;28;20037;-80
2022/11/05 15:03:00;;;;;;;13.15;4.55;;;;;;;;;;5101200;28;20082;-80
2022/11/05 15:05:29;;;;;;;8.63;4.00;;;;;;;;;;5108493;27;20051;-80
2022/11/05 15:07:56;;;;;;;9.18;4.05;;;;;;;;;;5101241;27;20052;-81
2022/11/05 15:10:30;;;;;;;8.82;3.70;;;;;;;;;;5090496;28;20995;-79
2022/11/05 15:13:03;;;;;;;6.82;2.72;;;;;;;;;;5095996;28;20060;-81
2022/11/05 15:15:41;;;;;;;11.27;2.97;;;;;;;;;;5107480;27;20063;-80
2022/11/05 15:18:19;;;;;;;7.53;2.95;;;;;;;;;;5108292;27;20059;-78
2022/11/05 15:20:47;;;;;;;11.50;3.55;;;;;;;;;;5109037;28;20044;-79
2022/11/05 15:23:18;;;;;;;6.93;3.17;;;;;;;;;;5100737;27;20058;-79
2022/11/05 15:25:53;;;;;;;7.93;3.40;;;;;;;;;;5109263;27;20063;-80
2022/11/05 15:28:29;;;;;;;8.63;3.47;;;;;;;;;;5104990;27;20056;-80
2022/11/05 15:30:58;;;;;;;8.43;3.50;;;;;;;;;;5105741;28;20056;-80
2022/11/05 15:33:25;;;;;;;10.65;3.40;;;;;;;;;;5101127;27;20059;-81
2022/11/05 15:35:51;;;;;;;9.35;3.70;;;;;;;;;;5106523;28;20044;-80
2022/11/05 15:38:25;;;;;;;6.78;3.05;;;;;;;;;;5102210;28;20060;-80